Joyce, Washington
Current Conditions -  °F | °C
As of 4:53 AM on Monday 20 Oct 2014 (Local Time) from KCLM Reporting Station
Overcast Overcast  
Wind Chill: 55°   Ceiling: 1400
Heat Index: 55°   Visibility: 10mi
Dew Point: 54°   Wind: 6mph
Humidity: 96%   Direction: 130°SE
Pressure: 29.66"   Gusts: NA
Location:  48.14°N, 123.74°W
Report Text: KCLM 201153Z AUTO 13005KT 10SM BKN014 OVC050 13/12 A2966 RMK AO2 RAE1056B12E41 SLP042 P0000 60007 70013 T01280122 10133 20128 58000 TSNO $
Loading
Personal Weather Stations






























Interactive Weather Map
Tropical Storm Tracking
New forecast layout! Learn more

10-Day Weather Forecast

Advertisements
Track Severe Weather on mobile